createdAt,value
2022-10-30T00:02:37.234Z,11.40
2022-10-30T00:06:40.053Z,11.40
2022-10-30T00:10:40.217Z,11.40
2022-10-30T00:14:40.387Z,11.40
2022-10-30T00:18:42.378Z,11.40
2022-10-30T00:22:45.163Z,11.40
2022-10-30T00:26:45.353Z,11.40
2022-10-30T00:30:45.500Z,11.30
2022-10-30T00:34:45.587Z,11.30
2022-10-30T00:38:48.285Z,11.20
2022-10-30T00:42:48.682Z,11.20
2022-10-30T00:46:49.580Z,11.20
2022-10-30T00:50:49.865Z,11.20
2022-10-30T00:54:53.445Z,11.20
2022-10-30T00:58:59.761Z,11.20
2022-10-30T01:03:01.344Z,11.20
2022-10-30T01:07:08.385Z,11.20
2022-10-30T01:11:13.085Z,11.20
2022-10-30T01:15:16.285Z,11.20
2022-10-30T01:19:27.685Z,11.20
2022-10-30T01:23:42.205Z,11.20
2022-10-30T01:28:01.483Z,11.20
2022-10-30T01:32:21.994Z,11.20
2022-10-30T01:36:32.153Z,11.20
2022-10-30T01:40:32.582Z,11.20
2022-10-30T01:44:36.972Z,11.20
2022-10-30T01:49:17.694Z,11.20
2022-10-30T01:53:34.369Z,11.20
2022-10-30T01:57:44.018Z,11.20
2022-10-30T02:01:49.560Z,11.20
2022-10-30T02:05:54.404Z,11.30
2022-10-30T02:09:58.229Z,11.20
2022-10-30T02:14:03.178Z,11.30
2022-10-30T02:18:06.846Z,11.30
2022-10-30T02:22:09.987Z,11.40
2022-10-30T02:26:10.267Z,11.40
2022-10-30T02:30:12.633Z,11.40
2022-10-30T02:34:12.718Z,11.40
2022-10-30T02:38:15.490Z,11.40
2022-10-30T02:42:15.660Z,11.40
2022-10-30T02:46:15.814Z,11.40
2022-10-30T02:50:16.471Z,11.40
2022-10-30T02:54:19.294Z,11.30
2022-10-30T02:58:19.767Z,11.30
2022-10-30T03:02:20.143Z,11.20
2022-10-30T03:06:21.035Z,11.20
2022-10-30T03:10:23.809Z,11.20
2022-10-30T03:14:23.957Z,11.10
2022-10-30T03:18:24.497Z,11.20
2022-10-30T03:22:24.660Z,11.10
2022-10-30T03:26:27.500Z,11.10
2022-10-30T03:30:33.940Z,11.10
2022-10-30T03:34:34.855Z,11.00
2022-10-30T03:38:38.531Z,11.10
2022-10-30T03:42:43.224Z,11.10
2022-10-30T03:46:43.444Z,11.10
2022-10-30T03:50:55.234Z,11.10
2022-10-30T03:54:55.361Z,11.10
2022-10-30T03:58:58.286Z,11.00
2022-10-30T04:02:59.043Z,11.10
2022-10-30T04:07:00.468Z,11.00
2022-10-30T04:11:00.739Z,11.00
2022-10-30T04:15:03.611Z,10.90
2022-10-30T04:19:03.891Z,10.90
2022-10-30T04:23:06.978Z,10.80
2022-10-30T04:27:07.254Z,10.80
2022-10-30T04:31:10.076Z,10.80
2022-10-30T04:35:11.645Z,10.80
2022-10-30T04:39:12.673Z,10.70
2022-10-30T04:43:15.770Z,10.70
2022-10-30T04:47:22.584Z,10.70
2022-10-30T04:51:23.120Z,10.70
2022-10-30T04:55:23.624Z,10.70
2022-10-30T04:59:24.080Z,10.60
2022-10-30T05:03:29.248Z,10.60
2022-10-30T05:07:29.485Z,10.50
2022-10-30T05:11:29.693Z,10.50
2022-10-30T05:15:29.933Z,10.50
2022-10-30T05:19:32.713Z,10.50
2022-10-30T05:23:32.980Z,10.50
2022-10-30T05:27:33.814Z,10.50
2022-10-30T05:31:35.524Z,10.40
2022-10-30T05:35:53.117Z,10.40
2022-10-30T05:39:53.815Z,10.40
2022-10-30T05:44:02.486Z,10.30
2022-10-30T05:48:05.635Z,10.20
2022-10-30T05:52:14.815Z,10.20
2022-10-30T05:56:15.128Z,10.10
2022-10-30T06:00:17.652Z,10.10
2022-10-30T06:04:18.104Z,10.10
2022-10-30T06:08:21.164Z,10.00
2022-10-30T06:12:24.169Z,10.00
2022-10-30T06:21:01.569Z,10.00
2022-10-30T06:25:34.082Z,10.00
2022-10-30T06:30:08.395Z,10.10
2022-10-30T06:34:08.617Z,10.10
2022-10-30T06:38:12.090Z,10.20
2022-10-30T06:42:14.876Z,10.20
2022-10-30T06:46:30.615Z,10.30
2022-10-30T06:50:33.672Z,10.40
2022-10-30T06:54:34.215Z,10.60
2022-10-30T06:58:39.248Z,10.80
2022-10-30T07:02:45.350Z,11.00
2022-10-30T07:06:47.011Z,11.30
2022-10-30T07:10:47.112Z,11.40
2022-10-30T07:15:14.073Z,11.60
2022-10-30T07:19:33.652Z,11.80
2022-10-30T07:23:33.794Z,12.00
2022-10-30T07:27:49.586Z,12.20
2022-10-30T07:32:18.434Z,12.40
2022-10-30T07:36:37.261Z,12.70
2022-10-30T07:40:59.047Z,12.90
2022-10-30T07:45:16.658Z,13.10
2022-10-30T07:49:51.620Z,13.40
2022-10-30T07:53:51.834Z,13.60
2022-10-30T07:57:53.830Z,13.80
2022-10-30T08:02:13.688Z,14.00
2022-10-30T08:06:48.405Z,14.00
2022-10-30T08:10:48.630Z,14.10
2022-10-30T08:14:49.326Z,14.30
2022-10-30T08:18:49.709Z,14.40
2022-10-30T08:22:57.897Z,14.40
2022-10-30T08:26:58.537Z,14.40
2022-10-30T08:31:02.437Z,14.70
2022-10-30T08:35:22.578Z,15.00
2022-10-30T08:39:25.321Z,15.30
2022-10-30T08:48:01.025Z,15.40
2022-10-30T08:52:02.195Z,15.50
2022-10-30T08:56:02.392Z,15.50
2022-10-30T09:00:17.764Z,15.60
2022-10-30T09:04:42.921Z,15.90
2022-10-30T09:09:12.089Z,16.50
2022-10-30T09:13:18.756Z,16.70
2022-10-30T09:17:19.361Z,16.80
2022-10-30T09:21:24.087Z,16.80
2022-10-30T09:25:26.839Z,17.00
2022-10-30T09:29:39.179Z,17.50
2022-10-30T09:33:42.494Z,18.00
2022-10-30T09:38:05.254Z,18.60
2022-10-30T09:42:45.595Z,19.00
2022-10-30T09:47:05.136Z,19.70
2022-10-30T09:51:23.570Z,20.30
2022-10-30T09:55:43.458Z,20.50
2022-10-30T10:00:04.448Z,20.70
2022-10-30T10:04:29.300Z,21.40
2022-10-30T10:08:40.549Z,21.70
2022-10-30T10:13:01.419Z,22.00
2022-10-30T10:17:07.720Z,22.00
2022-10-30T10:21:18.387Z,22.10
2022-10-30T10:25:22.501Z,22.00
2022-10-30T10:29:49.776Z,22.10
2022-10-30T10:34:09.165Z,21.90
2022-10-30T10:38:26.896Z,22.10
2022-10-30T10:42:42.775Z,22.00
2022-10-30T10:47:16.267Z,22.10
2022-10-30T10:51:23.855Z,22.10
2022-10-30T10:55:30.681Z,22.40
2022-10-30T10:59:41.129Z,22.40
2022-10-30T11:03:57.871Z,23.00
2022-10-30T11:08:06.829Z,23.00
2022-10-30T11:12:09.045Z,23.80
2022-10-30T11:16:28.081Z,23.70
2022-10-30T11:20:38.877Z,23.80
2022-10-30T11:24:39.847Z,24.30
2022-10-30T11:28:53.131Z,24.30
2022-10-30T11:32:55.472Z,24.40
2022-10-30T11:37:00.246Z,24.80
2022-10-30T11:41:00.687Z,25.00
2022-10-30T11:45:01.033Z,25.60
2022-10-30T11:49:01.193Z,26.10
2022-10-30T11:53:13.946Z,26.70
2022-10-30T11:57:36.365Z,26.80
2022-10-30T12:01:39.795Z,27.10
2022-10-30T12:05:45.064Z,27.20
2022-10-30T12:09:49.941Z,26.70
2022-10-30T12:13:50.229Z,26.20
2022-10-30T12:17:56.177Z,26.30
2022-10-30T12:22:01.514Z,26.50
2022-10-30T12:26:12.546Z,27.30
2022-10-30T12:30:22.643Z,26.70
2022-10-30T12:34:39.965Z,27.30
2022-10-30T12:38:48.281Z,27.60
2022-10-30T12:43:01.479Z,26.80
2022-10-30T12:47:12.330Z,26.30
2022-10-30T12:51:24.696Z,26.80
2022-10-30T12:55:34.472Z,26.80
2022-10-30T12:59:54.290Z,27.10
2022-10-30T13:04:03.596Z,27.20
2022-10-30T13:08:17.390Z,27.50
2022-10-30T13:12:24.691Z,28.10
2022-10-30T13:16:32.451Z,27.60
2022-10-30T13:20:34.462Z,27.20
2022-10-30T13:24:52.223Z,27.10
2022-10-30T13:29:05.473Z,27.00
2022-10-30T13:33:22.122Z,26.60
2022-10-30T13:37:32.206Z,26.70
2022-10-30T13:41:45.590Z,26.10
2022-10-30T13:46:10.185Z,25.90
2022-10-30T13:50:33.699Z,25.50
2022-10-30T13:54:40.024Z,25.00
2022-10-30T13:58:50.500Z,25.40
2022-10-30T14:03:26.213Z,25.80
2022-10-30T14:07:41.205Z,26.10
2022-10-30T14:11:41.327Z,26.50
2022-10-30T14:15:47.110Z,26.40
2022-10-30T14:20:29.789Z,26.50
2022-10-30T14:24:35.621Z,26.10
2022-10-30T14:28:38.870Z,25.90
2022-10-30T14:32:44.224Z,25.80
2022-10-30T14:36:53.645Z,25.70
2022-10-30T14:41:27.824Z,25.20
2022-10-30T14:45:36.841Z,24.70
2022-10-30T14:50:02.208Z,24.10
2022-10-30T14:54:15.573Z,23.40
2022-10-30T14:58:28.097Z,22.70
2022-10-30T15:02:47.292Z,22.20
2022-10-30T15:07:04.284Z,22.00
2022-10-30T15:11:25.268Z,21.60
2022-10-30T15:15:28.781Z,21.30
2022-10-30T15:19:30.528Z,21.00
2022-10-30T15:23:33.961Z,20.70
2022-10-30T15:27:37.011Z,20.40
2022-10-30T15:31:39.910Z,20.00
2022-10-30T15:35:39.992Z,19.70
2022-10-30T15:39:40.080Z,19.50
2022-10-30T15:43:45.676Z,19.20
2022-10-30T15:48:00.450Z,19.00
2022-10-30T15:52:02.391Z,18.70
2022-10-30T15:56:03.294Z,18.40
2022-10-30T16:00:10.702Z,18.20
2022-10-30T16:04:21.539Z,17.90
2022-10-30T16:08:25.540Z,17.60
2022-10-30T16:12:29.112Z,17.40
2022-10-30T16:16:33.731Z,17.20
2022-10-30T16:20:37.411Z,17.00
2022-10-30T16:24:39.005Z,16.80
2022-10-30T16:28:40.945Z,16.60
2022-10-30T16:32:45.924Z,16.40
2022-10-30T16:36:49.104Z,16.20
2022-10-30T16:40:50.400Z,16.10
2022-10-30T16:44:51.853Z,15.90
2022-10-30T16:49:00.901Z,15.80
2022-10-30T16:53:08.616Z,15.60
2022-10-30T16:57:22.636Z,15.50
2022-10-30T17:01:28.869Z,15.30
2022-10-30T17:05:33.828Z,15.20
2022-10-30T17:09:41.324Z,15.00
2022-10-30T17:13:44.376Z,15.00
2022-10-30T17:17:45.273Z,14.90
2022-10-30T17:21:45.916Z,14.80
2022-10-30T17:25:49.808Z,14.70
2022-10-30T17:29:50.289Z,14.60
2022-10-30T17:33:51.993Z,14.50
2022-10-30T17:37:52.301Z,14.40
2022-10-30T17:41:59.878Z,14.30
2022-10-30T17:46:00.769Z,14.20
2022-10-30T17:50:03.190Z,14.00
2022-10-30T17:54:03.684Z,13.90
2022-10-30T17:58:06.433Z,13.80
2022-10-30T18:02:15.140Z,13.70
2022-10-30T18:06:21.197Z,13.70
2022-10-30T18:10:21.514Z,13.60
2022-10-30T18:14:24.182Z,13.50
2022-10-30T18:18:24.372Z,13.40
2022-10-30T18:22:24.626Z,13.40
2022-10-30T18:26:27.890Z,13.30
2022-10-30T18:30:31.456Z,13.30
2022-10-30T18:34:31.568Z,13.10
2022-10-30T18:38:31.707Z,13.10
2022-10-30T18:42:31.882Z,13.00
2022-10-30T18:46:36.431Z,13.00
2022-10-30T18:50:38.003Z,12.90
2022-10-30T18:54:38.117Z,12.80
2022-10-30T18:58:38.274Z,12.70
2022-10-30T19:02:41.194Z,12.60
2022-10-30T19:06:41.511Z,12.50
2022-10-30T19:10:44.397Z,12.40
2022-10-30T19:14:44.603Z,12.40
2022-10-30T19:18:51.126Z,12.30
2022-10-30T19:22:51.262Z,12.20
2022-10-30T19:26:51.334Z,12.10
2022-10-30T19:30:54.951Z,12.10
2022-10-30T19:34:57.865Z,12.00
2022-10-30T19:39:00.780Z,11.90
2022-10-30T19:43:03.743Z,11.90
2022-10-30T19:47:03.872Z,11.80
2022-10-30T19:51:07.306Z,11.70
2022-10-30T19:55:08.717Z,11.70
2022-10-30T19:59:12.705Z,11.70
2022-10-30T20:03:18.920Z,11.70
2022-10-30T20:07:21.821Z,11.60
2022-10-30T20:11:21.922Z,11.60
2022-10-30T20:15:25.295Z,11.60
2022-10-30T20:19:32.753Z,11.50
2022-10-30T20:23:35.601Z,11.50
2022-10-30T20:27:35.757Z,11.50
2022-10-30T20:31:36.009Z,11.40
2022-10-30T20:35:36.218Z,11.30
2022-10-30T20:39:39.380Z,11.30
2022-10-30T20:43:41.924Z,11.30
2022-10-30T20:47:42.149Z,11.30
2022-10-30T20:51:42.284Z,11.30
2022-10-30T20:55:45.210Z,11.30
2022-10-30T20:59:45.566Z,11.20
2022-10-30T21:03:45.834Z,11.10
2022-10-30T21:07:46.011Z,11.10
2022-10-30T21:11:48.997Z,11.00
2022-10-30T21:15:51.394Z,11.00
2022-10-30T21:19:51.537Z,11.00
2022-10-30T21:23:51.632Z,11.00
2022-10-30T21:27:54.519Z,11.00
2022-10-30T21:31:54.922Z,11.00
2022-10-30T21:35:55.203Z,11.00
2022-10-30T21:39:55.437Z,10.90
2022-10-30T21:44:00.833Z,10.80
2022-10-30T21:48:00.975Z,10.70
2022-10-30T21:52:01.565Z,10.60
2022-10-30T21:56:05.568Z,10.50
2022-10-30T22:00:10.559Z,10.40
2022-10-30T22:04:13.155Z,10.30
2022-10-30T22:08:13.275Z,10.20
2022-10-30T22:12:13.615Z,10.20
2022-10-30T22:16:18.002Z,10.10
2022-10-30T22:20:19.508Z,10.10
2022-10-30T22:24:19.801Z,10.10
2022-10-30T22:28:19.949Z,10.10
2022-10-30T22:32:23.040Z,10.00
2022-10-30T22:36:26.069Z,9.90
2022-10-30T22:40:26.535Z,9.90
2022-10-30T22:44:28.660Z,9.90
2022-10-30T22:48:31.814Z,9.90
2022-10-30T22:52:32.334Z,9.90
2022-10-30T22:56:35.183Z,9.90
2022-10-30T23:00:35.329Z,9.90
2022-10-30T23:04:38.336Z,9.90
2022-10-30T23:08:39.455Z,9.90
2022-10-30T23:12:39.584Z,9.90
2022-10-30T23:16:39.844Z,9.90
2022-10-30T23:20:43.804Z,9.90
2022-10-30T23:24:43.894Z,9.90
2022-10-30T23:28:45.380Z,9.80
2022-10-30T23:32:45.520Z,9.80
2022-10-30T23:36:48.307Z,9.80
2022-10-30T23:40:48.730Z,9.80
2022-10-30T23:44:48.792Z,9.80
2022-10-30T23:48:48.899Z,9.80
2022-10-30T23:52:51.761Z,9.80
2022-10-30T23:56:51.912Z,9.80
